KSQI/SQI METAR and TAF weather

Enter ICAO airport designator
Station Type Date Time Source
KSQI METAR 2022/11/30 03:56 UTC NOAA

KSQI 300356Z AUTO 28020G24KT 10SM OVC018 M01/M03 A2970 RMK AO2 PK WND 28030/0323 SLP925 T10061033 FZRANO


Station Type Date Time Source
KSQI Decoded METAR 2022/11/30 03:56 UTC NOAA

Sterling Rockfalls, IL, United States (KSQI) 41-45N 089-40W
Nov 29, 2022 - 10:56 PM EST / 2022.11.30 0356 UTC
Wind: from the W (280 degrees) at 23 MPH (20 KT) gusting to 28 MPH (24 KT):0
Visibility: 10 mile(s):0
Sky conditions: overcast
Temperature: 30.9 F (-0.6 C)
Windchill: 17 F (-8 C):1
Dew Point: 26.1 F (-3.3 C)
Relative Humidity: 81%
Pressure (altimeter): 29.7 in. Hg (1005 hPa)
ob: KSQI 300356Z AUTO 28020G24KT 10SM OVC018 M01/M03 A2970 RMK AO2 PK WND 28030/0323 SLP925 T10061033 FZRANO
cycle: 4

Station Type Date Time Source
KSQI TAF UTC NOAA

Error!

Example: see airport list